Time;durP1;ratioP1;P1;durP2;ratioP2;P2;SDS_P1;SDS_P2;PMS_P1;PMS_P2;Temp;Humidity;BMP_temperature;BMP_pressure;BME280_temperature;BME280_humidity;BME280_pressure;Samples;Min_cycle;Max_cycle;Signal;HPM_P1;HPM_P2
2022/03/06 00:01:28;;;;;;;14.63;7.45;;;;;;;;;;5089232;28;20028;-51
2022/03/06 00:03:54;;;;;;;11.52;6.70;;;;;;;;;;5085858;28;20073;-48
2022/03/06 00:06:20;;;;;;;15.27;6.55;;;;;;;;;;5076248;28;20036;-51
2022/03/06 00:08:46;;;;;;;9.70;6.05;;;;;;;;;;5085934;28;20396;-49
2022/03/06 00:11:12;;;;;;;12.50;6.60;;;;;;;;;;5086444;28;20040;-48
2022/03/06 00:13:38;;;;;;;15.00;6.78;;;;;;;;;;5083215;28;20046;-48
2022/03/06 00:16:05;;;;;;;10.75;6.65;;;;;;;;;;5087804;28;20105;-49
2022/03/06 00:18:31;;;;;;;15.85;6.85;;;;;;;;;;5085280;28;20078;-48
2022/03/06 00:20:59;;;;;;;11.07;7.00;;;;;;;;;;5085344;28;20169;-48
2022/03/06 00:23:25;;;;;;;19.05;7.57;;;;;;;;;;5089734;28;20020;-48
2022/03/06 00:25:51;;;;;;;15.05;6.88;;;;;;;;;;5091999;28;20371;-51
2022/03/06 00:28:16;;;;;;;15.27;7.07;;;;;;;;;;5088775;28;20115;-52
2022/03/06 00:30:42;;;;;;;12.30;6.40;;;;;;;;;;5092193;28;20491;-53
2022/03/06 00:33:08;;;;;;;12.38;7.20;;;;;;;;;;5087855;28;20024;-54
2022/03/06 00:35:34;;;;;;;16.27;7.28;;;;;;;;;;5082918;28;20032;-53
2022/03/06 00:38:00;;;;;;;18.50;7.40;;;;;;;;;;5085836;28;20024;-51
2022/03/06 00:40:26;;;;;;;9.60;6.13;;;;;;;;;;5082345;28;20510;-48
2022/03/06 00:42:53;;;;;;;13.02;6.75;;;;;;;;;;5090797;28;20024;-52
2022/03/06 00:45:19;;;;;;;12.88;6.55;;;;;;;;;;5080332;28;20046;-53
2022/03/06 00:47:45;;;;;;;15.65;7.13;;;;;;;;;;5085806;28;20016;-48
2022/03/06 00:50:11;;;;;;;13.18;6.93;;;;;;;;;;5074427;28;20086;-50
2022/03/06 00:52:40;;;;;;;15.85;7.75;;;;;;;;;;5076893;28;20040;-50
2022/03/06 00:55:06;;;;;;;13.05;6.70;;;;;;;;;;5079245;28;20032;-53
2022/03/06 00:57:32;;;;;;;10.38;6.63;;;;;;;;;;5077520;28;20385;-51
2022/03/06 00:59:58;;;;;;;16.23;7.32;;;;;;;;;;5081409;28;20038;-48
2022/03/06 01:02:24;;;;;;;15.48;7.43;;;;;;;;;;5078443;28;20541;-52
2022/03/06 01:04:50;;;;;;;13.60;7.32;;;;;;;;;;5078737;28;20016;-50
2022/03/06 01:07:16;;;;;;;14.07;7.35;;;;;;;;;;5086126;28;20032;-50
2022/03/06 01:09:42;;;;;;;11.88;6.82;;;;;;;;;;5081443;28;20111;-49
2022/03/06 01:12:09;;;;;;;12.05;6.53;;;;;;;;;;5080284;28;20054;-49
2022/03/06 01:14:35;;;;;;;13.63;6.60;;;;;;;;;;5085070;28;20364;-52
2022/03/06 01:17:00;;;;;;;12.77;7.45;;;;;;;;;;5088313;28;20047;-50
2022/03/06 01:19:26;;;;;;;11.93;6.80;;;;;;;;;;5082764;28;20103;-52
2022/03/06 01:21:52;;;;;;;10.55;6.43;;;;;;;;;;5087460;28;20032;-54
2022/03/06 01:24:18;;;;;;;12.35;7.00;;;;;;;;;;5089950;28;20054;-48
2022/03/06 01:26:45;;;;;;;15.35;7.10;;;;;;;;;;5086461;28;20032;-51
2022/03/06 01:29:10;;;;;;;13.02;6.70;;;;;;;;;;5083623;28;20020;-50
2022/03/06 01:31:37;;;;;;;16.52;6.97;;;;;;;;;;5078985;28;20170;-51
2022/03/06 01:34:03;;;;;;;13.50;6.65;;;;;;;;;;5074476;28;20025;-51
2022/03/06 01:36:30;;;;;;;11.48;6.85;;;;;;;;;;5077281;28;20388;-49
2022/03/06 01:38:56;;;;;;;10.55;5.57;;;;;;;;;;5080405;28;20030;-53
2022/03/06 01:41:22;;;;;;;9.88;5.72;;;;;;;;;;5086477;28;20111;-52
2022/03/06 01:43:48;;;;;;;13.77;6.38;;;;;;;;;;5084158;28;20136;-53
2022/03/06 01:46:14;;;;;;;10.32;6.13;;;;;;;;;;5083154;28;20445;-53
2022/03/06 01:48:40;;;;;;;10.93;6.32;;;;;;;;;;5088055;28;20044;-51
2022/03/06 01:51:06;;;;;;;12.45;6.30;;;;;;;;;;5085847;28;20036;-49
2022/03/06 01:53:32;;;;;;;13.43;6.57;;;;;;;;;;5080853;28;20074;-51
2022/03/06 01:55:58;;;;;;;10.18;6.28;;;;;;;;;;5079657;28;20110;-48
2022/03/06 01:58:24;;;;;;;10.63;5.30;;;;;;;;;;5081205;28;20032;-48
2022/03/06 02:00:50;;;;;;;12.68;6.18;;;;;;;;;;5076058;28;20111;-52
2022/03/06 02:03:17;;;;;;;10.95;5.68;;;;;;;;;;5083631;28;20047;-50
2022/03/06 02:05:44;;;;;;;9.77;6.03;;;;;;;;;;5084516;28;20031;-53
2022/03/06 02:08:10;;;;;;;10.35;5.68;;;;;;;;;;5081454;28;20056;-54
2022/03/06 02:10:37;;;;;;;10.35;5.68;;;;;;;;;;5088653;28;20052;-54
2022/03/06 02:13:04;;;;;;;15.65;6.65;;;;;;;;;;5085823;28;20035;-49
2022/03/06 02:15:30;;;;;;;12.93;6.53;;;;;;;;;;5083534;28;20032;-54
2022/03/06 02:17:56;;;;;;;14.30;6.13;;;;;;;;;;5084289;28;20082;-53
2022/03/06 02:20:24;;;;;;;12.63;6.25;;;;;;;;;;5084851;28;20260;-53
2022/03/06 02:22:51;;;;;;;13.02;6.78;;;;;;;;;;5083997;28;20115;-49
2022/03/06 02:25:37;;;;;;;12.93;6.32;;;;;;;;;;5090007;28;20036;-52
2022/03/06 02:28:06;;;;;;;12.85;5.93;;;;;;;;;;5083992;28;20032;-54
2022/03/06 02:30:32;;;;;;;14.10;7.30;;;;;;;;;;5086769;28;20032;-54
2022/03/06 02:32:59;;;;;;;9.85;5.55;;;;;;;;;;5077273;28;20610;-52
2022/03/06 02:35:26;;;;;;;10.40;6.20;;;;;;;;;;5082037;28;20408;-53
2022/03/06 02:37:52;;;;;;;10.60;6.18;;;;;;;;;;5086479;28;20024;-48
2022/03/06 02:40:20;;;;;;;14.10;7.13;;;;;;;;;;5083907;28;20073;-52
2022/03/06 02:42:46;;;;;;;13.10;6.30;;;;;;;;;;5089902;28;20024;-49
2022/03/06 02:45:14;;;;;;;13.60;6.50;;;;;;;;;;5088616;28;20028;-52
2022/03/06 02:47:40;;;;;;;12.98;6.75;;;;;;;;;;5087470;28;20172;-49
2022/03/06 02:50:07;;;;;;;12.07;6.13;;;;;;;;;;5083297;28;20016;-51
2022/03/06 02:52:33;;;;;;;11.70;6.80;;;;;;;;;;5092112;28;20384;-50
2022/03/06 02:55:00;;;;;;;12.05;6.35;;;;;;;;;;5089265;28;20024;-51
2022/03/06 02:57:26;;;;;;;11.32;6.30;;;;;;;;;;5082571;28;20056;-49
2022/03/06 02:59:52;;;;;;;10.60;6.18;;;;;;;;;;5077575;28;20032;-49
2022/03/06 03:02:18;;;;;;;13.35;6.57;;;;;;;;;;5084049;28;20047;-52
2022/03/06 03:04:45;;;;;;;10.85;5.80;;;;;;;;;;5078039;28;20027;-51
2022/03/06 03:07:11;;;;;;;14.45;6.95;;;;;;;;;;5078472;28;20120;-54
2022/03/06 03:09:37;;;;;;;16.38;6.15;;;;;;;;;;5086723;28;20100;-52
2022/03/06 03:12:03;;;;;;;13.65;6.40;;;;;;;;;;5082179;28;20035;-53
2022/03/06 03:14:32;;;;;;;10.18;5.78;;;;;;;;;;5087604;28;20056;-52
2022/03/06 03:16:58;;;;;;;12.60;6.40;;;;;;;;;;5083560;28;20024;-51
2022/03/06 03:19:24;;;;;;;12.15;6.22;;;;;;;;;;5087566;28;20028;-54
2022/03/06 03:21:50;;;;;;;13.82;6.28;;;;;;;;;;5092154;28;20034;-54
2022/03/06 03:24:16;;;;;;;13.88;6.45;;;;;;;;;;5087535;28;20403;-53
2022/03/06 03:26:42;;;;;;;13.35;6.40;;;;;;;;;;5088157;28;20145;-50
2022/03/06 03:29:08;;;;;;;9.52;5.82;;;;;;;;;;5076096;28;20020;-49
2022/03/06 03:31:34;;;;;;;11.90;6.38;;;;;;;;;;5085817;28;20383;-49
2022/03/06 03:34:00;;;;;;;9.55;5.70;;;;;;;;;;5090820;28;20028;-51
2022/03/06 03:36:26;;;;;;;11.68;6.32;;;;;;;;;;5080724;28;20174;-50
2022/03/06 03:38:52;;;;;;;12.52;6.55;;;;;;;;;;5072984;28;20086;-48
2022/03/06 03:41:18;;;;;;;10.82;6.28;;;;;;;;;;5086679;28;20445;-49
2022/03/06 03:43:44;;;;;;;14.15;6.63;;;;;;;;;;5073938;28;20024;-51
2022/03/06 03:46:10;;;;;;;14.93;7.40;;;;;;;;;;5088959;28;20027;-49
2022/03/06 03:48:36;;;;;;;13.40;7.55;;;;;;;;;;5083688;28;20111;-49
2022/03/06 03:51:02;;;;;;;15.48;7.28;;;;;;;;;;5085631;28;20380;-50
2022/03/06 03:53:28;;;;;;;12.73;6.45;;;;;;;;;;5087329;28;20064;-50
2022/03/06 03:55:54;;;;;;;13.93;6.47;;;;;;;;;;5091612;28;20040;-48
2022/03/06 03:58:20;;;;;;;13.02;5.70;;;;;;;;;;5079896;28;20024;-50
2022/03/06 04:00:55;;;;;;;8.95;5.72;;;;;;;;;;5085908;28;20758;-51
2022/03/06 04:03:21;;;;;;;12.27;6.20;;;;;;;;;;5076808;28;20031;-53
2022/03/06 04:05:47;;;;;;;11.38;5.80;;;;;;;;;;5079498;28;20031;-51
2022/03/06 04:08:14;;;;;;;11.52;6.57;;;;;;;;;;5078496;28;20551;-49
2022/03/06 04:10:39;;;;;;;17.10;5.82;;;;;;;;;;5084969;28;20066;-52
2022/03/06 04:13:05;;;;;;;15.25;6.32;;;;;;;;;;5081172;28;20048;-53
2022/03/06 04:15:32;;;;;;;13.93;5.93;;;;;;;;;;5074648;28;20032;-49
2022/03/06 04:17:57;;;;;;;12.40;6.25;;;;;;;;;;5083563;28;20531;-49
2022/03/06 04:20:24;;;;;;;11.70;5.82;;;;;;;;;;5085765;28;20138;-53
2022/03/06 04:22:50;;;;;;;11.93;5.93;;;;;;;;;;5087212;28;20864;-52
2022/03/06 04:25:16;;;;;;;8.32;5.22;;;;;;;;;;5071730;28;20030;-48
2022/03/06 04:27:42;;;;;;;10.40;5.82;;;;;;;;;;5085050;28;20024;-50
2022/03/06 04:30:08;;;;;;;10.70;5.50;;;;;;;;;;5078149;28;20460;-48
2022/03/06 04:32:34;;;;;;;10.60;5.90;;;;;;;;;;5090027;28;20452;-48
2022/03/06 04:35:00;;;;;;;11.30;6.05;;;;;;;;;;5081297;28;20035;-48
2022/03/06 04:37:26;;;;;;;11.95;5.93;;;;;;;;;;5083246;28;20036;-49
2022/03/06 04:39:52;;;;;;;14.40;6.05;;;;;;;;;;5081211;28;20111;-53
2022/03/06 04:42:18;;;;;;;13.65;6.18;;;;;;;;;;5084857;28;20458;-51
2022/03/06 04:44:44;;;;;;;11.77;5.43;;;;;;;;;;5083147;28;20101;-49
2022/03/06 04:47:10;;;;;;;14.13;5.53;;;;;;;;;;5088125;28;20067;-51
2022/03/06 04:49:36;;;;;;;12.23;6.03;;;;;;;;;;5090125;28;20336;-54
2022/03/06 04:52:02;;;;;;;13.63;5.80;;;;;;;;;;5090666;28;20427;-54
2022/03/06 04:54:28;;;;;;;14.57;6.15;;;;;;;;;;5088768;28;20046;-53
2022/03/06 04:56:54;;;;;;;9.95;5.32;;;;;;;;;;5081899;28;20105;-54
2022/03/06 04:59:20;;;;;;;11.98;5.32;;;;;;;;;;5081522;28;20582;-52
2022/03/06 05:01:46;;;;;;;9.27;5.20;;;;;;;;;;5073613;28;20051;-52
2022/03/06 05:04:12;;;;;;;13.68;5.40;;;;;;;;;;5084034;28;20028;-53
2022/03/06 05:06:38;;;;;;;10.93;5.00;;;;;;;;;;5086337;28;20032;-48
2022/03/06 05:09:04;;;;;;;9.65;4.90;;;;;;;;;;5088076;28;20039;-48
2022/03/06 05:11:31;;;;;;;9.75;4.82;;;;;;;;;;5090755;28;20028;-52
2022/03/06 05:13:57;;;;;;;8.80;5.18;;;;;;;;;;5080168;28;20175;-48
2022/03/06 05:16:23;;;;;;;7.53;4.68;;;;;;;;;;5088774;28;20040;-50
2022/03/06 05:18:49;;;;;;;8.98;4.05;;;;;;;;;;5085148;28;20481;-48
2022/03/06 05:21:15;;;;;;;9.77;4.45;;;;;;;;;;5074841;28;20036;-52
2022/03/06 05:23:41;;;;;;;7.95;4.32;;;;;;;;;;5084135;28;20415;-51
2022/03/06 05:26:07;;;;;;;9.45;3.60;;;;;;;;;;5090364;28;20036;-53
2022/03/06 05:28:33;;;;;;;8.75;4.18;;;;;;;;;;5080054;28;20032;-50
2022/03/06 05:30:59;;;;;;;7.68;4.10;;;;;;;;;;5084881;28;20177;-50
2022/03/06 05:33:25;;;;;;;6.95;3.97;;;;;;;;;;5088959;28;20148;-51
2022/03/06 05:35:51;;;;;;;8.00;3.83;;;;;;;;;;5080841;28;20116;-53
2022/03/06 05:38:17;;;;;;;5.80;3.33;;;;;;;;;;5088250;28;20073;-54
2022/03/06 05:40:43;;;;;;;7.40;3.83;;;;;;;;;;5080787;28;20029;-54
2022/03/06 05:43:09;;;;;;;6.80;4.57;;;;;;;;;;5085771;28;20032;-53
2022/03/06 05:45:36;;;;;;;6.57;2.90;;;;;;;;;;5086474;28;20046;-54
2022/03/06 05:48:02;;;;;;;7.28;3.90;;;;;;;;;;5080713;28;20030;-51
2022/03/06 05:50:28;;;;;;;6.38;3.33;;;;;;;;;;5086964;28;20016;-48
2022/03/06 05:52:54;;;;;;;8.93;3.88;;;;;;;;;;5076092;28;20051;-51
2022/03/06 05:55:20;;;;;;;7.93;3.72;;;;;;;;;;5083701;28;20388;-48
2022/03/06 05:57:46;;;;;;;8.38;4.15;;;;;;;;;;5092470;28;20424;-48
2022/03/06 06:00:12;;;;;;;6.00;4.07;;;;;;;;;;5090695;28;20037;-48
2022/03/06 06:02:39;;;;;;;8.02;4.68;;;;;;;;;;5088996;28;20063;-52
2022/03/06 06:05:06;;;;;;;9.70;3.80;;;;;;;;;;5085582;28;20060;-53
2022/03/06 06:07:32;;;;;;;9.30;3.90;;;;;;;;;;5085296;28;20025;-50
2022/03/06 06:09:58;;;;;;;8.40;3.50;;;;;;;;;;5080137;28;20419;-48
2022/03/06 06:12:24;;;;;;;6.55;3.60;;;;;;;;;;5082966;28;20032;-49
2022/03/06 06:14:51;;;;;;;10.05;4.70;;;;;;;;;;5092666;28;20146;-53
2022/03/06 06:17:17;;;;;;;6.90;3.80;;;;;;;;;;5091015;28;20028;-51
2022/03/06 06:19:43;;;;;;;7.55;4.25;;;;;;;;;;5081816;28;20032;-50
2022/03/06 06:22:09;;;;;;;7.93;3.92;;;;;;;;;;5095014;28;20024;-52
2022/03/06 06:24:35;;;;;;;8.05;3.92;;;;;;;;;;5089573;28;20029;-53
2022/03/06 06:27:01;;;;;;;6.50;4.10;;;;;;;;;;5083875;28;20039;-54
2022/03/06 06:29:27;;;;;;;9.90;4.38;;;;;;;;;;5088182;28;20034;-54
2022/03/06 06:31:53;;;;;;;10.65;4.70;;;;;;;;;;5094204;28;20036;-50
2022/03/06 06:34:20;;;;;;;8.75;4.47;;;;;;;;;;5073744;28;20036;-52
2022/03/06 06:36:46;;;;;;;6.70;4.05;;;;;;;;;;5094757;28;20028;-51
2022/03/06 06:39:12;;;;;;;11.10;5.28;;;;;;;;;;5076050;28;20025;-49
2022/03/06 06:41:39;;;;;;;6.32;4.25;;;;;;;;;;5081319;28;20449;-54
2022/03/06 06:44:05;;;;;;;9.05;4.70;;;;;;;;;;5079764;28;20360;-51
2022/03/06 06:46:31;;;;;;;12.90;4.68;;;;;;;;;;5088113;28;20473;-50
2022/03/06 06:48:57;;;;;;;9.70;4.80;;;;;;;;;;5089462;28;20020;-52
2022/03/06 06:51:23;;;;;;;7.72;4.03;;;;;;;;;;5084295;28;20036;-51
2022/03/06 06:53:49;;;;;;;7.03;4.68;;;;;;;;;;5078713;28;20039;-48
2022/03/06 06:56:15;;;;;;;7.57;4.70;;;;;;;;;;5085946;28;20051;-48
2022/03/06 06:58:41;;;;;;;7.53;5.05;;;;;;;;;;5086915;28;20086;-50
2022/03/06 07:01:07;;;;;;;8.65;4.60;;;;;;;;;;5078228;28;20476;-48
2022/03/06 07:03:33;;;;;;;10.13;4.93;;;;;;;;;;5080467;28;20040;-49
2022/03/06 07:05:59;;;;;;;8.02;4.45;;;;;;;;;;5079306;28;20024;-50
2022/03/06 07:08:25;;;;;;;10.10;4.43;;;;;;;;;;5086583;28;20050;-54
2022/03/06 07:10:51;;;;;;;6.95;4.53;;;;;;;;;;5080555;28;20104;-51
2022/03/06 07:13:17;;;;;;;7.75;4.45;;;;;;;;;;5085387;28;20043;-52
2022/03/06 07:15:43;;;;;;;8.75;4.40;;;;;;;;;;5081902;28;20034;-51
2022/03/06 07:18:09;;;;;;;6.63;4.13;;;;;;;;;;5073443;28;20461;-48
2022/03/06 07:20:35;;;;;;;8.07;4.65;;;;;;;;;;5080713;28;20028;-50
2022/03/06 07:23:01;;;;;;;6.90;4.70;;;;;;;;;;5091458;28;20357;-53
2022/03/06 07:25:27;;;;;;;9.98;4.90;;;;;;;;;;5080222;28;20024;-51
2022/03/06 07:27:53;;;;;;;10.35;4.22;;;;;;;;;;5087806;28;20035;-52
2022/03/06 07:30:20;;;;;;;6.68;3.92;;;;;;;;;;5083180;28;20403;-54
2022/03/06 07:32:47;;;;;;;8.55;4.70;;;;;;;;;;5092119;28;20131;-48
2022/03/06 07:35:14;;;;;;;11.27;5.00;;;;;;;;;;5087004;28;20042;-52
2022/03/06 07:37:41;;;;;;;11.38;4.28;;;;;;;;;;5082701;28;20063;-51
2022/03/06 07:40:07;;;;;;;9.70;4.45;;;;;;;;;;5089252;28;20028;-48
2022/03/06 07:42:34;;;;;;;8.32;5.38;;;;;;;;;;5091800;28;20036;-49
2022/03/06 07:45:00;;;;;;;8.23;4.72;;;;;;;;;;5080052;28;20021;-47
2022/03/06 07:47:26;;;;;;;8.15;5.25;;;;;;;;;;5087516;28;20525;-52
2022/03/06 07:49:52;;;;;;;8.35;5.30;;;;;;;;;;5083217;28;20217;-48
2022/03/06 07:52:18;;;;;;;9.45;5.85;;;;;;;;;;5082045;28;20473;-51
2022/03/06 07:54:44;;;;;;;15.65;6.28;;;;;;;;;;5084183;28;20105;-49
2022/03/06 07:57:10;;;;;;;7.60;5.32;;;;;;;;;;5080461;28;20037;-54
2022/03/06 07:59:36;;;;;;;11.05;5.97;;;;;;;;;;5077104;28;20032;-52
2022/03/06 08:02:02;;;;;;;9.27;5.95;;;;;;;;;;5075922;28;20029;-54
2022/03/06 08:04:28;;;;;;;10.60;6.05;;;;;;;;;;5082140;28;20074;-54
2022/03/06 08:06:54;;;;;;;8.50;5.78;;;;;;;;;;5083829;28;20032;-48
2022/03/06 08:09:20;;;;;;;8.82;5.53;;;;;;;;;;5082684;28;20028;-52
2022/03/06 08:11:46;;;;;;;9.68;6.28;;;;;;;;;;5084047;28;20024;-50
2022/03/06 08:14:12;;;;;;;7.80;5.65;;;;;;;;;;5081400;28;20028;-49
2022/03/06 08:16:39;;;;;;;10.73;5.35;;;;;;;;;;5073219;28;20127;-50
2022/03/06 08:19:05;;;;;;;9.55;5.22;;;;;;;;;;5082458;28;20442;-50
2022/03/06 08:21:31;;;;;;;6.65;4.68;;;;;;;;;;5073471;28;20020;-48
2022/03/06 08:23:57;;;;;;;9.85;5.43;;;;;;;;;;5085934;28;20107;-49
2022/03/06 08:26:23;;;;;;;10.50;5.25;;;;;;;;;;5080980;28;20056;-53
2022/03/06 08:28:50;;;;;;;7.10;4.60;;;;;;;;;;5078591;28;20035;-49
2022/03/06 08:31:16;;;;;;;8.80;4.93;;;;;;;;;;5078000;28;20048;-52
2022/03/06 08:33:42;;;;;;;9.65;5.00;;;;;;;;;;5082387;28;20028;-49
2022/03/06 08:36:08;;;;;;;9.73;4.13;;;;;;;;;;5084775;28;20029;-49
2022/03/06 08:38:34;;;;;;;5.75;4.00;;;;;;;;;;5077653;28;20490;-50
2022/03/06 08:41:00;;;;;;;9.45;4.70;;;;;;;;;;5080694;28;20169;-53
2022/03/06 08:43:26;;;;;;;5.38;3.83;;;;;;;;;;5090414;28;20032;-52
2022/03/06 08:45:52;;;;;;;8.18;4.45;;;;;;;;;;5078076;28;20021;-51
2022/03/06 08:48:18;;;;;;;8.07;4.78;;;;;;;;;;5084328;28;20028;-51
2022/03/06 08:50:44;;;;;;;7.80;4.85;;;;;;;;;;5079064;28;20030;-52
2022/03/06 08:53:10;;;;;;;5.22;3.88;;;;;;;;;;5082498;28;20127;-48
2022/03/06 08:55:36;;;;;;;8.38;4.78;;;;;;;;;;5078752;28;20040;-50
2022/03/06 08:58:02;;;;;;;7.47;4.60;;;;;;;;;;5090859;28;20137;-52
2022/03/06 09:00:28;;;;;;;6.90;3.95;;;;;;;;;;5084855;28;20031;-50
2022/03/06 09:02:54;;;;;;;5.93;3.83;;;;;;;;;;5089029;28;20079;-51
2022/03/06 09:05:20;;;;;;;5.68;3.92;;;;;;;;;;5085560;28;20066;-47
2022/03/06 09:07:46;;;;;;;6.53;4.07;;;;;;;;;;5086127;28;20099;-47
2022/03/06 09:10:13;;;;;;;10.20;4.20;;;;;;;;;;5086045;28;20151;-48
2022/03/06 09:12:39;;;;;;;5.93;4.25;;;;;;;;;;5076314;28;20030;-48
2022/03/06 09:15:06;;;;;;;7.57;4.00;;;;;;;;;;5085261;28;20024;-54
2022/03/06 09:17:32;;;;;;;5.72;3.70;;;;;;;;;;5089853;28;20032;-48
2022/03/06 09:19:58;;;;;;;5.35;3.53;;;;;;;;;;5077708;28;20035;-48
2022/03/06 09:22:24;;;;;;;7.32;4.22;;;;;;;;;;5079091;28;20372;-47
2022/03/06 09:24:50;;;;;;;5.95;4.25;;;;;;;;;;5080680;28;20035;-52
2022/03/06 09:27:16;;;;;;;6.35;4.15;;;;;;;;;;5088281;28;20056;-49
2022/03/06 09:29:42;;;;;;;6.60;4.22;;;;;;;;;;5073395;28;20027;-51
2022/03/06 09:32:08;;;;;;;7.82;3.63;;;;;;;;;;5082420;28;20399;-49
2022/03/06 09:34:34;;;;;;;6.32;3.67;;;;;;;;;;5084885;28;20032;-53
2022/03/06 09:37:00;;;;;;;6.57;3.30;;;;;;;;;;5076711;28;20420;-52
2022/03/06 09:39:26;;;;;;;9.02;5.05;;;;;;;;;;5089643;28;20129;-50
2022/03/06 09:41:54;;;;;;;5.80;3.50;;;;;;;;;;5086964;28;20047;-50
2022/03/06 09:44:23;;;;;;;6.93;3.40;;;;;;;;;;5087723;28;20059;-50
2022/03/06 09:46:52;;;;;;;5.97;3.50;;;;;;;;;;5092078;28;20478;-47
2022/03/06 09:49:18;;;;;;;5.15;3.38;;;;;;;;;;5090067;28;20028;-47
2022/03/06 09:51:44;;;;;;;5.53;3.95;;;;;;;;;;5076247;28;20048;-48
2022/03/06 09:54:12;;;;;;;6.20;3.28;;;;;;;;;;5075204;28;20029;-47
2022/03/06 09:56:38;;;;;;;5.28;3.15;;;;;;;;;;5079511;28;20089;-47
2022/03/06 09:59:04;;;;;;;5.53;2.97;;;;;;;;;;5083666;28;20035;-48
2022/03/06 10:01:31;;;;;;;5.20;3.40;;;;;;;;;;5075870;28;20660;-49
2022/03/06 10:03:57;;;;;;;4.85;3.30;;;;;;;;;;5078736;28;20016;-47
2022/03/06 10:06:23;;;;;;;5.40;3.22;;;;;;;;;;5081375;28;20059;-48
2022/03/06 10:09:02;;;;;;;5.60;2.97;;;;;;;;;;5078048;28;20020;-52
2022/03/06 10:11:28;;;;;;;9.23;3.20;;;;;;;;;;5082888;28;20050;-52
2022/03/06 10:13:54;;;;;;;6.55;3.55;;;;;;;;;;5072014;28;20024;-47
2022/03/06 10:16:21;;;;;;;4.18;2.88;;;;;;;;;;5088887;28;20036;-47
2022/03/06 10:18:55;;;;;;;10.43;3.17;;;;;;;;;;5077011;28;20097;-50
2022/03/06 10:21:25;;;;;;;4.93;3.13;;;;;;;;;;5087262;28;20024;-49
2022/03/06 10:23:55;;;;;;;5.63;3.20;;;;;;;;;;5079499;28;20021;-49
2022/03/06 10:26:23;;;;;;;5.63;2.90;;;;;;;;;;5079951;28;20384;-51
2022/03/06 10:28:51;;;;;;;8.43;3.40;;;;;;;;;;5074335;28;20066;-52
2022/03/06 10:31:18;;;;;;;7.13;4.30;;;;;;;;;;5084918;28;20380;-53
2022/03/06 10:33:54;;;;;;;5.82;3.72;;;;;;;;;;5079321;28;20040;-49
2022/03/06 10:36:29;;;;;;;8.55;3.50;;;;;;;;;;5086608;28;20055;-53
2022/03/06 10:38:55;;;;;;;5.95;3.42;;;;;;;;;;5077877;28;20029;-52
2022/03/06 10:41:21;;;;;;;7.78;3.67;;;;;;;;;;5088829;28;20029;-51
2022/03/06 10:43:49;;;;;;;5.15;3.58;;;;;;;;;;5089483;28;20468;-52
2022/03/06 10:46:17;;;;;;;6.28;3.50;;;;;;;;;;5077114;28;20474;-47
2022/03/06 10:48:44;;;;;;;6.93;3.80;;;;;;;;;;5075488;28;20357;-47
2022/03/06 10:51:11;;;;;;;6.22;3.58;;;;;;;;;;5083922;28;20032;-50
2022/03/06 10:53:38;;;;;;;6.47;3.40;;;;;;;;;;5086651;28;20051;-47
2022/03/06 10:56:08;;;;;;;5.20;3.33;;;;;;;;;;5088879;28;20032;-47
2022/03/06 10:58:36;;;;;;;3.75;2.50;;;;;;;;;;5081346;28;20031;-47
2022/03/06 11:01:02;;;;;;;4.43;2.67;;;;;;;;;;5084045;28;20021;-49
2022/03/06 11:03:29;;;;;;;6.68;3.00;;;;;;;;;;5086432;28;20330;-47
2022/03/06 11:05:55;;;;;;;5.15;3.40;;;;;;;;;;5086655;28;20027;-47
2022/03/06 11:08:24;;;;;;;5.35;3.60;;;;;;;;;;5082701;28;20017;-47
2022/03/06 11:10:50;;;;;;;5.43;3.35;;;;;;;;;;5085110;28;20032;-47
2022/03/06 11:13:16;;;;;;;4.78;3.47;;;;;;;;;;5085599;28;20020;-47
2022/03/06 11:15:42;;;;;;;4.18;3.00;;;;;;;;;;5085035;28;20036;-47
2022/03/06 11:18:08;;;;;;;7.20;3.95;;;;;;;;;;5094363;28;20027;-48
2022/03/06 11:20:35;;;;;;;4.85;3.03;;;;;;;;;;5089091;28;20095;-50
2022/03/06 11:23:16;;;;;;;6.90;3.33;;;;;;;;;;5081998;28;20033;-47
2022/03/06 11:26:02;;;;;;;7.40;3.20;;;;;;;;;;5079710;28;20542;-48
2022/03/06 11:28:38;;;;;;;5.57;3.55;;;;;;;;;;5076619;28;20028;-47
2022/03/06 11:31:04;;;;;;;6.10;3.17;;;;;;;;;;5079453;28;20452;-47
2022/03/06 11:33:30;;;;;;;5.63;3.58;;;;;;;;;;5079093;28;20551;-47
2022/03/06 11:35:56;;;;;;;4.25;3.50;;;;;;;;;;5078413;28;20115;-47
2022/03/06 11:38:22;;;;;;;3.30;2.95;;;;;;;;;;5083937;28;20035;-49
2022/03/06 11:40:50;;;;;;;6.22;3.13;;;;;;;;;;5083144;28;20444;-52
2022/03/06 11:43:31;;;;;;;4.43;2.97;;;;;;;;;;5086343;28;20027;-53
2022/03/06 11:45:57;;;;;;;7.30;3.95;;;;;;;;;;5082643;28;20024;-51
2022/03/06 11:48:24;;;;;;;6.20;4.78;;;;;;;;;;5079378;28;20392;-49
2022/03/06 11:51:09;;;;;;;4.13;3.13;;;;;;;;;;5079490;28;20029;-53
2022/03/06 11:53:51;;;;;;;3.65;2.92;;;;;;;;;;5079478;28;20044;-51
2022/03/06 11:56:33;;;;;;;3.97;2.72;;;;;;;;;;5082729;28;20024;-48
2022/03/06 11:59:02;;;;;;;4.88;2.30;;;;;;;;;;5079633;28;20104;-50
2022/03/06 12:01:28;;;;;;;3.75;2.40;;;;;;;;;;5090497;28;20032;-49
2022/03/06 12:03:55;;;;;;;4.32;2.75;;;;;;;;;;5085691;28;20040;-50
2022/03/06 12:06:23;;;;;;;3.65;2.58;;;;;;;;;;5088487;28;20064;-53
2022/03/06 12:08:51;;;;;;;3.38;2.55;;;;;;;;;;5083036;28;20028;-49
2022/03/06 12:11:19;;;;;;;6.25;2.50;;;;;;;;;;5081652;28;20040;-49
2022/03/06 12:13:49;;;;;;;3.25;2.42;;;;;;;;;;5086333;28;20081;-51
2022/03/06 12:16:16;;;;;;;3.15;2.17;;;;;;;;;;5091774;28;20115;-47
2022/03/06 12:19:01;;;;;;;3.92;2.35;;;;;;;;;;5085384;28;20483;-50
2022/03/06 12:21:36;;;;;;;4.43;2.67;;;;;;;;;;5091976;28;20035;-49
2022/03/06 12:24:12;;;;;;;4.68;2.10;;;;;;;;;;5091491;28;20023;-53
2022/03/06 12:26:45;;;;;;;2.38;2.08;;;;;;;;;;5086529;28;20025;-49
2022/03/06 12:29:31;;;;;;;4.28;2.40;;;;;;;;;;5075421;28;20388;-50
2022/03/06 12:32:17;;;;;;;3.50;2.05;;;;;;;;;;5081286;28;20123;-49
2022/03/06 12:34:43;;;;;;;2.50;1.77;;;;;;;;;;5086621;28;20023;-53
2022/03/06 12:37:09;;;;;;;2.05;1.85;;;;;;;;;;5087945;28;20461;-53
2022/03/06 12:39:36;;;;;;;3.88;2.00;;;;;;;;;;5083897;28;20058;-50
2022/03/06 12:42:03;;;;;;;2.42;1.65;;;;;;;;;;5081260;28;20516;-47
2022/03/06 12:44:31;;;;;;;5.43;2.30;;;;;;;;;;5085472;28;20048;-52
2022/03/06 12:46:57;;;;;;;3.28;1.73;;;;;;;;;;5084985;28;20036;-53
2022/03/06 12:49:23;;;;;;;2.28;1.50;;;;;;;;;;5077987;28;20459;-47
2022/03/06 12:51:51;;;;;;;4.47;2.03;;;;;;;;;;5076563;28;20048;-47
2022/03/06 12:54:19;;;;;;;5.47;2.00;;;;;;;;;;5087169;28;20070;-47
2022/03/06 12:56:45;;;;;;;4.93;2.35;;;;;;;;;;5083903;28;20115;-47
2022/03/06 12:59:16;;;;;;;2.17;1.80;;;;;;;;;;5078139;28;20419;-47
2022/03/06 13:01:42;;;;;;;6.05;1.63;;;;;;;;;;5076336;28;20361;-48
2022/03/06 13:04:08;;;;;;;3.40;1.40;;;;;;;;;;5082581;28;20043;-47
2022/03/06 13:06:35;;;;;;;4.22;1.88;;;;;;;;;;5077422;28;20774;-47
2022/03/06 13:09:02;;;;;;;3.00;1.65;;;;;;;;;;5074340;28;20048;-47
2022/03/06 13:11:28;;;;;;;1.20;1.05;;;;;;;;;;5083287;28;20035;-48
2022/03/06 13:14:01;;;;;;;6.28;1.63;;;;;;;;;;5076339;28;20056;-48
2022/03/06 13:16:27;;;;;;;4.03;1.30;;;;;;;;;;5077999;28;20020;-48
2022/03/06 13:18:58;;;;;;;6.28;1.42;;;;;;;;;;5083356;28;20383;-47
2022/03/06 13:21:25;;;;;;;4.72;1.80;;;;;;;;;;5079490;28;20593;-47
2022/03/06 13:23:58;;;;;;;2.35;1.75;;;;;;;;;;5073261;28;20031;-47
2022/03/06 13:26:24;;;;;;;;;;;;;;;;;;5084090;28;20024;-49
2022/03/06 13:28:50;;;;;;;3.05;1.45;;;;;;;;;;5082125;28;19965;-53
2022/03/06 13:31:16;;;;;;;3.80;1.80;;;;;;;;;;5086652;28;20036;-52
2022/03/06 13:33:42;;;;;;;3.08;1.88;;;;;;;;;;5076465;28;20020;-51
2022/03/06 13:36:15;;;;;;;3.70;2.10;;;;;;;;;;5085115;28;20037;-52
2022/03/06 13:38:41;;;;;;;5.13;2.42;;;;;;;;;;5088788;28;20051;-51
2022/03/06 13:41:09;;;;;;;2.38;1.67;;;;;;;;;;5084102;28;20078;-47
2022/03/06 13:43:36;;;;;;;2.60;1.95;;;;;;;;;;5083801;28;20039;-50
2022/03/06 13:46:02;;;;;;;3.03;2.03;;;;;;;;;;5071980;28;20021;-48
2022/03/06 13:48:29;;;;;;;5.55;2.15;;;;;;;;;;5089664;28;20387;-47
2022/03/06 13:50:56;;;;;;;3.25;1.80;;;;;;;;;;5090239;28;20089;-49
2022/03/06 13:53:22;;;;;;;3.50;1.58;;;;;;;;;;5080923;28;20056;-49
2022/03/06 13:55:52;;;;;;;4.45;1.65;;;;;;;;;;5076517;28;20032;-49
2022/03/06 13:58:19;;;;;;;2.42;1.70;;;;;;;;;;5076450;28;20515;-47
2022/03/06 14:00:47;;;;;;;2.55;1.60;;;;;;;;;;5079958;28;20198;-48
2022/03/06 14:03:15;;;;;;;3.33;1.83;;;;;;;;;;5075859;28;20795;-48
2022/03/06 14:05:42;;;;;;;4.30;2.00;;;;;;;;;;5073108;28;20027;-47
2022/03/06 14:08:19;;;;;;;3.63;1.45;;;;;;;;;;5087933;28;20028;-48
2022/03/06 14:10:46;;;;;;;2.97;1.58;;;;;;;;;;5075331;28;20534;-48
2022/03/06 14:13:28;;;;;;;2.05;1.45;;;;;;;;;;5091464;28;20393;-48
2022/03/06 14:15:56;;;;;;;3.17;1.52;;;;;;;;;;5086245;28;20047;-47
2022/03/06 14:18:32;;;;;;;4.78;1.27;;;;;;;;;;5084317;28;20016;-47
2022/03/06 14:20:58;;;;;;;2.67;1.63;;;;;;;;;;5095154;28;20036;-47
2022/03/06 14:23:24;;;;;;;2.00;1.40;;;;;;;;;;5094122;28;20059;-47
2022/03/06 14:25:50;;;;;;;2.65;1.35;;;;;;;;;;5083960;28;20028;-50
2022/03/06 14:28:18;;;;;;;2.03;1.25;;;;;;;;;;5086705;28;20054;-47
2022/03/06 14:30:44;;;;;;;3.40;1.35;;;;;;;;;;5090212;28;20032;-47
2022/03/06 14:33:10;;;;;;;1.23;1.02;;;;;;;;;;5086473;28;20035;-47
2022/03/06 14:35:37;;;;;;;3.17;1.35;;;;;;;;;;5094065;28;20031;-47
2022/03/06 14:38:04;;;;;;;2.38;1.20;;;;;;;;;;5087213;28;20020;-49